Kingsville, MD (21087)

9:25 PM EST on November 28, 2014 (GMT -0500)
Rumsey Island Joppa, MD | Change Station
CLOSE
Current Station
Personal Weather Station
Location: Joppa, MD
Elevation: 16 ft
Nearby Weather Stations

Elev 16 ft 39.41 °N, 76.36 °W | Updated 12 minutes ago

Partly Cloudy
Partly Cloudy
24.5 °F
Feels Like 24 °F
N
0.0
Wind Variable Wind from ESE

Today
High -- | Low -- °F
--% Chance of Precip.
Yesterday
High -- | Low -- °F
Precip. -- in
7:03 AM 4:43 PM
Waxing Crescent, 46% visible
Pressure 30.32 in
Visibility 10.0 miles
Clouds Scattered Clouds 12000 ft
Windchill 24 °F
Dew Point 21 °F
Humidity 85%
Rainfall 0.00 in
Snow Depth Not available.
UV 0 out of 12
Pollen .10 out of 12
Air Quality Not available.
Flu Activity Not available.
METAR KMTN 290145Z 00000KT 10SM SCT120 M01/M06 A3032

More Conditions Fewer Conditions

Pressure 30.32 in
Visibility 10.0 miles
Clouds Scattered Clouds 12000 ft
Windchill 24 °F
Dew Point 21 °F
Humidity 85%
Rainfall 0.00 in
Snow Depth Not available.
UV 0 out of 12
Pollen .10 out of 12
Air Quality Not available.
Flu Activity Not available.
METAR KMTN 290145Z 00000KT 10SM SCT120 M01/M06 A3032

More Conditions Fewer Conditions

10-Day Weather Forecast

Almanac

Astronomy

Nov. 28, 2014 Rise Set
Actual Time
Civil Twilight
Nautical Twilight
Astronomical Twilight
Moon
Length of Visible Light
Length of Day
Tomorrow will be .
, % of the Moon is Illuminated

Today's Extremes

State Highs State Lows

Community

WunderPhotos

Upload Photos

1,774,375 photos uploaded!

WunderBlogs® & News

Nearby

Air Quality

  Air Quality AQ Index Pollutant
Not available.

Snow Depth

Station Depth Elevation

Earthquake Activity

City Distance Mag. Time & Date
Minimum magnitude displayed is 2.5.

Coastal Water Temperatures

Place Temperature

Nearby Weather Stations